Time;durP1;ratioP1;P1;durP2;ratioP2;P2;SDS_P1;SDS_P2;PMS_P1;PMS_P2;Temp;Humidity;BMP_temperature;BMP_pressure;BME280_temperature;BME280_humidity;BME280_pressure;Samples;Min_cycle;Max_cycle;Signal;HPM_P1;HPM_P2
2023/06/14 00:02:00;;;;;;;3.45;1.17;;;;;;;;;;5108846;28;20052;-67
2023/06/14 00:04:28;;;;;;;5.57;0.98;;;;;;;;;;5107555;28;20044;-67
2023/06/14 00:06:56;;;;;;;3.47;1.20;;;;;;;;;;5111594;28;20054;-67
2023/06/14 00:09:23;;;;;;;1.88;0.98;;;;;;;;;;5091687;28;20048;-67
2023/06/14 00:11:51;;;;;;;2.10;0.90;;;;;;;;;;5103841;27;20051;-67
2023/06/14 00:14:18;;;;;;;3.38;1.38;;;;;;;;;;5109199;28;20048;-67
2023/06/14 00:16:45;;;;;;;2.83;1.02;;;;;;;;;;5111676;28;20056;-67
2023/06/14 00:19:14;;;;;;;3.20;1.00;;;;;;;;;;5109162;28;20504;-67
2023/06/14 00:21:41;;;;;;;2.03;1.30;;;;;;;;;;5108562;28;20047;-67
2023/06/14 00:24:09;;;;;;;2.22;1.30;;;;;;;;;;5103489;28;20135;-67
2023/06/14 00:26:36;;;;;;;2.25;1.20;;;;;;;;;;5103208;28;20055;-67
2023/06/14 00:29:03;;;;;;;4.60;1.33;;;;;;;;;;5105264;27;20070;-67
2023/06/14 00:31:31;;;;;;;2.33;1.40;;;;;;;;;;5107664;28;20055;-67
2023/06/14 00:33:58;;;;;;;2.35;0.90;;;;;;;;;;5102199;28;20050;-67
2023/06/14 00:36:27;;;;;;;2.15;1.05;;;;;;;;;;5086291;28;20055;-67
2023/06/14 00:38:54;;;;;;;2.42;0.90;;;;;;;;;;5106831;27;20039;-67
2023/06/14 00:41:21;;;;;;;3.53;1.10;;;;;;;;;;5111264;28;20142;-67
2023/06/14 00:43:48;;;;;;;1.75;0.98;;;;;;;;;;5108577;28;20051;-67
2023/06/14 00:46:16;;;;;;;1.75;1.10;;;;;;;;;;5111328;28;20552;-67
2023/06/14 00:48:43;;;;;;;3.97;1.10;;;;;;;;;;5110423;28;20044;-67
2023/06/14 00:51:10;;;;;;;2.10;1.05;;;;;;;;;;5109823;28;20044;-67
2023/06/14 00:53:40;;;;;;;5.65;1.05;;;;;;;;;;5109165;28;20050;-67
2023/06/14 00:56:08;;;;;;;2.42;1.17;;;;;;;;;;5104275;28;20542;-67
2023/06/14 00:58:35;;;;;;;2.90;0.90;;;;;;;;;;5110939;28;20066;-67
2023/06/14 01:01:02;;;;;;;2.00;1.10;;;;;;;;;;5109929;28;20051;-67
2023/06/14 01:03:31;;;;;;;2.15;1.10;;;;;;;;;;5110101;28;20044;-67
2023/06/14 01:06:02;;;;;;;0.98;0.82;;;;;;;;;;5110305;28;20051;-67
2023/06/14 01:08:33;;;;;;;4.70;1.63;;;;;;;;;;5084212;28;20052;-67
2023/06/14 01:11:05;;;;;;;1.58;0.82;;;;;;;;;;5113369;27;20051;-67
2023/06/14 01:13:34;;;;;;;2.65;1.10;;;;;;;;;;5110355;28;20485;-67
2023/06/14 01:16:02;;;;;;;2.47;0.93;;;;;;;;;;5107860;28;20130;-67
2023/06/14 01:18:30;;;;;;;1.13;0.95;;;;;;;;;;5109756;28;20130;-67
2023/06/14 01:20:57;;;;;;;1.80;0.90;;;;;;;;;;5106296;28;20166;-67
2023/06/14 01:23:32;;;;;;;1.40;0.85;;;;;;;;;;5103711;28;20043;-67
2023/06/14 01:26:03;;;;;;;1.95;1.02;;;;;;;;;;5102320;28;20052;-67
2023/06/14 01:28:31;;;;;;;3.42;0.90;;;;;;;;;;5107007;28;20050;-66
2023/06/14 01:31:03;;;;;;;1.15;0.75;;;;;;;;;;5110385;28;20059;-67
2023/06/14 01:33:31;;;;;;;1.67;0.90;;;;;;;;;;5101522;28;20042;-67
2023/06/14 01:35:59;;;;;;;2.08;1.20;;;;;;;;;;5109792;28;20536;-67
2023/06/14 01:38:29;;;;;;;1.77;1.00;;;;;;;;;;5090848;28;20088;-67
2023/06/14 01:40:57;;;;;;;2.88;1.00;;;;;;;;;;5102847;28;20070;-67
2023/06/14 01:43:25;;;;;;;1.30;0.80;;;;;;;;;;5105915;28;20047;-67
2023/06/14 01:45:53;;;;;;;1.60;0.82;;;;;;;;;;5110078;28;20055;-67
2023/06/14 01:48:21;;;;;;;1.75;1.00;;;;;;;;;;5107929;28;20091;-67
2023/06/14 01:50:49;;;;;;;4.32;0.90;;;;;;;;;;5106738;28;20051;-67
2023/06/14 01:53:16;;;;;;;1.30;0.90;;;;;;;;;;5106157;28;20035;-67
2023/06/14 01:55:48;;;;;;;2.50;1.00;;;;;;;;;;5102427;28;20520;-67
2023/06/14 01:58:16;;;;;;;1.90;0.85;;;;;;;;;;5108515;28;20050;-67
2023/06/14 02:00:45;;;;;;;6.55;1.05;;;;;;;;;;5105781;28;20040;-67
2023/06/14 02:03:12;;;;;;;2.72;0.95;;;;;;;;;;5104383;28;20044;-67
2023/06/14 02:05:40;;;;;;;1.42;0.80;;;;;;;;;;5102007;28;20412;-67
2023/06/14 02:08:08;;;;;;;1.25;0.80;;;;;;;;;;5101433;28;20048;-66
2023/06/14 02:10:35;;;;;;;0.90;0.70;;;;;;;;;;5086092;28;20474;-67
2023/06/14 02:13:03;;;;;;;2.70;0.80;;;;;;;;;;5107576;28;20079;-67
2023/06/14 02:15:33;;;;;;;2.25;1.30;;;;;;;;;;5108686;28;20044;-67
2023/06/14 02:18:02;;;;;;;2.30;0.85;;;;;;;;;;5108811;28;20059;-67
2023/06/14 02:20:30;;;;;;;0.90;0.75;;;;;;;;;;5106814;28;20056;-66
2023/06/14 02:22:57;;;;;;;1.98;0.95;;;;;;;;;;5104876;28;20039;-67
2023/06/14 02:25:24;;;;;;;1.30;0.90;;;;;;;;;;5104528;28;20400;-67
2023/06/14 02:27:52;;;;;;;2.85;1.00;;;;;;;;;;5109699;28;20407;-66
2023/06/14 02:30:20;;;;;;;2.17;0.80;;;;;;;;;;5107245;28;20043;-67
2023/06/14 02:32:48;;;;;;;1.65;1.00;;;;;;;;;;5087910;28;20120;-67
2023/06/14 02:35:15;;;;;;;3.22;0.70;;;;;;;;;;5106802;28;20052;-67
2023/06/14 02:37:43;;;;;;;1.63;1.00;;;;;;;;;;5103199;28;20406;-67
2023/06/14 02:40:11;;;;;;;2.13;0.85;;;;;;;;;;5110256;28;20048;-66
2023/06/14 02:42:38;;;;;;;1.92;0.82;;;;;;;;;;5105207;28;20052;-66
2023/06/14 02:45:06;;;;;;;1.60;1.08;;;;;;;;;;5112005;27;20104;-66
2023/06/14 02:47:34;;;;;;;1.60;0.98;;;;;;;;;;5116493;27;20043;-67
2023/06/14 02:50:02;;;;;;;2.95;1.02;;;;;;;;;;5113598;27;20054;-66
2023/06/14 02:52:29;;;;;;;2.90;1.25;;;;;;;;;;5108343;28;20050;-67
2023/06/14 02:54:56;;;;;;;1.50;0.85;;;;;;;;;;5115360;27;20130;-67
2023/06/14 02:57:24;;;;;;;2.20;0.90;;;;;;;;;;5115771;27;20044;-67
2023/06/14 02:59:51;;;;;;;1.95;1.00;;;;;;;;;;5104484;27;20496;-66
2023/06/14 03:02:19;;;;;;;3.90;1.40;;;;;;;;;;5110952;27;20059;-66
2023/06/14 03:04:48;;;;;;;1.85;1.00;;;;;;;;;;5115479;27;20051;-66
2023/06/14 03:07:19;;;;;;;1.65;1.05;;;;;;;;;;5111196;28;20123;-67
2023/06/14 03:09:46;;;;;;;5.03;1.10;;;;;;;;;;5110199;28;20616;-66
2023/06/14 03:12:14;;;;;;;1.95;0.98;;;;;;;;;;5112223;27;20055;-67
2023/06/14 03:14:43;;;;;;;2.13;0.95;;;;;;;;;;5108145;28;20040;-66
2023/06/14 03:17:10;;;;;;;2.30;1.13;;;;;;;;;;5114115;27;20255;-67
2023/06/14 03:19:37;;;;;;;1.27;0.80;;;;;;;;;;5106073;27;20517;-66
2023/06/14 03:22:07;;;;;;;2.03;0.98;;;;;;;;;;5089706;28;20051;-66
2023/06/14 03:24:36;;;;;;;2.30;1.08;;;;;;;;;;5094439;28;20048;-66
2023/06/14 03:27:03;;;;;;;1.77;1.13;;;;;;;;;;5114208;27;20043;-66
2023/06/14 03:29:31;;;;;;;3.30;1.02;;;;;;;;;;5109090;27;20497;-66
2023/06/14 03:31:59;;;;;;;2.53;0.98;;;;;;;;;;5114832;27;20048;-66
2023/06/14 03:34:26;;;;;;;1.77;0.90;;;;;;;;;;5101836;28;20126;-66
2023/06/14 03:36:54;;;;;;;2.60;1.10;;;;;;;;;;5116178;27;20043;-66
2023/06/14 03:39:22;;;;;;;1.55;0.80;;;;;;;;;;5109485;27;20101;-66
2023/06/14 03:41:50;;;;;;;2.55;0.98;;;;;;;;;;5115067;27;20051;-66
2023/06/14 03:44:18;;;;;;;2.00;0.73;;;;;;;;;;5111250;28;20493;-66
2023/06/14 03:46:46;;;;;;;1.38;0.95;;;;;;;;;;5106065;27;20071;-66
2023/06/14 03:49:13;;;;;;;1.83;1.10;;;;;;;;;;5103851;28;20497;-66
2023/06/14 03:51:40;;;;;;;1.83;1.05;;;;;;;;;;5093933;28;20052;-66
2023/06/14 03:54:07;;;;;;;2.80;1.00;;;;;;;;;;5114553;27;20047;-66
2023/06/14 03:56:36;;;;;;;6.20;1.08;;;;;;;;;;5108340;28;20059;-66
2023/06/14 03:59:04;;;;;;;2.10;0.88;;;;;;;;;;5107983;28;20097;-66
2023/06/14 04:01:33;;;;;;;2.30;1.20;;;;;;;;;;5097100;28;20633;-66
2023/06/14 04:04:00;;;;;;;1.85;1.08;;;;;;;;;;5112206;28;20510;-66
2023/06/14 04:06:32;;;;;;;4.22;1.17;;;;;;;;;;5102913;28;20113;-66
2023/06/14 04:09:02;;;;;;;4.00;1.00;;;;;;;;;;5111563;28;20126;-66
2023/06/14 04:11:29;;;;;;;1.92;0.80;;;;;;;;;;5111010;27;20057;-66
2023/06/14 04:13:58;;;;;;;2.05;1.10;;;;;;;;;;5106718;28;20479;-66
2023/06/14 04:16:25;;;;;;;4.35;1.30;;;;;;;;;;5104674;28;20048;-66
2023/06/14 04:18:53;;;;;;;3.58;1.17;;;;;;;;;;5111582;28;20143;-66
2023/06/14 04:21:20;;;;;;;1.73;1.05;;;;;;;;;;5110387;28;20120;-66
2023/06/14 04:23:48;;;;;;;1.90;1.10;;;;;;;;;;5086417;28;20420;-66
2023/06/14 04:26:15;;;;;;;2.00;1.20;;;;;;;;;;5105172;28;20040;-66
2023/06/14 04:28:46;;;;;;;1.75;1.20;;;;;;;;;;5095561;28;20083;-66
2023/06/14 04:31:16;;;;;;;2.58;1.08;;;;;;;;;;5106912;28;20036;-66
2023/06/14 04:33:45;;;;;;;2.35;1.20;;;;;;;;;;5108065;28;20113;-66
2023/06/14 04:36:12;;;;;;;1.88;1.17;;;;;;;;;;5112423;28;20044;-66
2023/06/14 04:38:41;;;;;;;2.13;1.20;;;;;;;;;;5109723;28;20040;-66
2023/06/14 04:41:11;;;;;;;1.75;1.20;;;;;;;;;;5112073;27;20143;-66
2023/06/14 04:43:39;;;;;;;2.85;1.10;;;;;;;;;;5110128;28;20043;-66
2023/06/14 04:46:09;;;;;;;1.60;1.08;;;;;;;;;;5111977;28;20452;-66
2023/06/14 04:48:39;;;;;;;2.35;1.23;;;;;;;;;;5109515;28;20075;-66
2023/06/14 04:51:06;;;;;;;1.60;1.10;;;;;;;;;;5109699;28;20043;-66
2023/06/14 04:53:34;;;;;;;1.45;1.10;;;;;;;;;;5108132;28;20609;-66
2023/06/14 04:56:02;;;;;;;2.22;1.10;;;;;;;;;;5106213;28;20055;-66
2023/06/14 04:58:30;;;;;;;2.72;1.35;;;;;;;;;;5106404;28;20569;-66
2023/06/14 05:00:59;;;;;;;4.40;1.30;;;;;;;;;;5107484;28;20076;-66
2023/06/14 05:03:26;;;;;;;2.30;1.20;;;;;;;;;;5108257;28;20043;-66
2023/06/14 05:05:54;;;;;;;1.65;1.05;;;;;;;;;;5090257;28;20048;-66
2023/06/14 05:08:24;;;;;;;4.78;1.48;;;;;;;;;;5106344;28;20046;-66
2023/06/14 05:10:51;;;;;;;2.45;1.30;;;;;;;;;;5111159;27;20082;-66
2023/06/14 05:13:18;;;;;;;2.30;1.20;;;;;;;;;;5104523;28;20104;-66
2023/06/14 05:15:45;;;;;;;2.38;1.20;;;;;;;;;;5108062;28;20644;-66
2023/06/14 05:18:15;;;;;;;5.53;1.50;;;;;;;;;;5100746;28;20047;-66
2023/06/14 05:20:42;;;;;;;1.50;0.90;;;;;;;;;;5107417;28;20048;-66
2023/06/14 05:23:14;;;;;;;1.77;1.25;;;;;;;;;;5104128;28;20059;-65
2023/06/14 05:25:42;;;;;;;2.28;1.25;;;;;;;;;;5105872;28;20050;-66
2023/06/14 05:28:10;;;;;;;1.38;1.05;;;;;;;;;;5109256;28;20089;-66
2023/06/14 05:30:39;;;;;;;2.10;1.30;;;;;;;;;;5110111;28;20054;-66
2023/06/14 05:33:06;;;;;;;2.45;1.52;;;;;;;;;;5102474;28;20487;-65
2023/06/14 05:35:33;;;;;;;3.60;1.20;;;;;;;;;;5109141;28;20047;-65
2023/06/14 05:38:01;;;;;;;2.80;1.40;;;;;;;;;;5109889;28;20268;-66
2023/06/14 05:40:29;;;;;;;3.80;1.33;;;;;;;;;;5110721;27;20062;-67
2023/06/14 05:42:57;;;;;;;3.38;1.60;;;;;;;;;;5106492;28;20048;-67
2023/06/14 05:45:24;;;;;;;2.83;1.40;;;;;;;;;;5106674;28;20521;-66
2023/06/14 05:47:52;;;;;;;2.58;1.30;;;;;;;;;;5110063;28;20052;-66
2023/06/14 05:50:19;;;;;;;3.75;1.40;;;;;;;;;;5097073;28;20066;-67
2023/06/14 05:52:46;;;;;;;2.47;1.17;;;;;;;;;;5096283;28;20066;-66
2023/06/14 05:55:13;;;;;;;2.88;1.27;;;;;;;;;;5110010;28;20039;-66
2023/06/14 05:57:42;;;;;;;2.38;1.27;;;;;;;;;;5100901;28;21046;-66
2023/06/14 06:00:14;;;;;;;1.75;1.40;;;;;;;;;;5105193;28;20079;-67
2023/06/14 06:02:42;;;;;;;3.55;1.30;;;;;;;;;;5108745;28;20479;-67
2023/06/14 06:05:09;;;;;;;2.55;1.33;;;;;;;;;;5083480;28;20047;-67
2023/06/14 06:07:37;;;;;;;2.55;1.30;;;;;;;;;;5085392;28;20108;-67
2023/06/14 06:10:04;;;;;;;2.33;1.60;;;;;;;;;;5103686;28;20462;-67
2023/06/14 06:12:32;;;;;;;4.10;1.40;;;;;;;;;;5101379;28;20043;-67
2023/06/14 06:15:01;;;;;;;1.95;1.23;;;;;;;;;;5103988;28;20051;-67
2023/06/14 06:17:28;;;;;;;2.78;1.35;;;;;;;;;;5104984;28;20043;-67
2023/06/14 06:19:56;;;;;;;1.80;1.35;;;;;;;;;;5109905;28;20051;-67
2023/06/14 06:22:23;;;;;;;3.47;1.63;;;;;;;;;;5107391;28;20055;-67
2023/06/14 06:24:50;;;;;;;3.72;1.40;;;;;;;;;;5104835;28;20035;-66
2023/06/14 06:27:18;;;;;;;1.42;1.30;;;;;;;;;;5085475;28;20066;-67
2023/06/14 06:29:46;;;;;;;2.67;1.20;;;;;;;;;;5097803;28;20067;-67
2023/06/14 06:32:14;;;;;;;3.70;1.30;;;;;;;;;;5098908;28;20134;-67
2023/06/14 06:34:42;;;;;;;2.05;1.50;;;;;;;;;;5085735;28;20054;-67
2023/06/14 06:37:09;;;;;;;2.13;1.38;;;;;;;;;;5107822;28;20515;-67
2023/06/14 06:39:36;;;;;;;1.88;1.33;;;;;;;;;;5102787;28;20043;-67
2023/06/14 06:42:04;;;;;;;2.28;1.20;;;;;;;;;;5086514;28;20146;-67
2023/06/14 06:44:31;;;;;;;2.15;1.40;;;;;;;;;;5106694;28;20397;-67
2023/06/14 06:46:59;;;;;;;2.38;1.30;;;;;;;;;;5106579;28;20040;-67
2023/06/14 06:49:27;;;;;;;3.88;1.70;;;;;;;;;;5108206;28;20043;-67
2023/06/14 06:52:01;;;;;;;2.60;1.50;;;;;;;;;;5087407;28;20066;-67
2023/06/14 06:54:29;;;;;;;4.72;1.40;;;;;;;;;;5107999;28;20054;-67
2023/06/14 06:56:56;;;;;;;2.42;1.40;;;;;;;;;;5107501;28;20405;-67
2023/06/14 06:59:23;;;;;;;2.90;1.45;;;;;;;;;;5108935;28;20100;-67
2023/06/14 07:01:51;;;;;;;2.28;1.50;;;;;;;;;;5104757;28;20075;-67
2023/06/14 07:04:18;;;;;;;2.72;1.58;;;;;;;;;;5103152;28;20071;-67
2023/06/14 07:06:48;;;;;;;4.05;1.13;;;;;;;;;;5095607;28;20126;-67
2023/06/14 07:09:15;;;;;;;6.00;1.30;;;;;;;;;;5107736;28;20076;-67
2023/06/14 07:11:43;;;;;;;3.50;1.30;;;;;;;;;;5110578;28;20040;-67
2023/06/14 07:14:10;;;;;;;2.88;1.40;;;;;;;;;;5097403;28;20050;-67
2023/06/14 07:16:38;;;;;;;2.08;1.42;;;;;;;;;;5109556;28;20050;-67
2023/06/14 07:19:06;;;;;;;6.35;1.48;;;;;;;;;;5100031;28;20052;-67
2023/06/14 07:21:33;;;;;;;3.08;1.30;;;;;;;;;;5105450;28;20051;-67
2023/06/14 07:24:01;;;;;;;1.98;0.90;;;;;;;;;;5107202;28;20052;-67
2023/06/14 07:26:29;;;;;;;1.58;1.17;;;;;;;;;;5109884;28;20067;-67
2023/06/14 07:28:56;;;;;;;1.70;1.38;;;;;;;;;;5091785;28;20170;-67
2023/06/14 07:31:23;;;;;;;1.98;0.88;;;;;;;;;;5111436;28;20414;-67
2023/06/14 07:33:50;;;;;;;2.63;1.13;;;;;;;;;;5112383;28;20043;-67
2023/06/14 07:36:18;;;;;;;1.88;1.30;;;;;;;;;;5106607;28;20044;-67
2023/06/14 07:38:45;;;;;;;2.05;1.05;;;;;;;;;;5111614;28;20093;-67
2023/06/14 07:41:14;;;;;;;2.85;1.40;;;;;;;;;;5113005;27;20043;-67
2023/06/14 07:43:41;;;;;;;2.78;1.10;;;;;;;;;;5103195;28;20055;-67
2023/06/14 07:46:09;;;;;;;1.33;1.05;;;;;;;;;;5105401;28;20056;-67
2023/06/14 07:48:36;;;;;;;1.60;1.02;;;;;;;;;;5108430;28;20040;-67
2023/06/14 07:51:03;;;;;;;3.17;1.38;;;;;;;;;;5107113;28;20052;-67
2023/06/14 07:53:31;;;;;;;5.25;1.10;;;;;;;;;;5104387;28;20036;-67
2023/06/14 07:55:58;;;;;;;2.10;1.10;;;;;;;;;;5095301;28;20124;-67
2023/06/14 07:58:27;;;;;;;2.33;1.10;;;;;;;;;;5107502;27;20512;-67
2023/06/14 08:00:54;;;;;;;1.75;1.23;;;;;;;;;;5108815;28;20047;-67
2023/06/14 08:03:22;;;;;;;1.73;1.15;;;;;;;;;;5110136;28;20436;-67
2023/06/14 08:05:50;;;;;;;1.55;0.90;;;;;;;;;;5108348;28;20048;-67
2023/06/14 08:08:17;;;;;;;3.53;1.10;;;;;;;;;;5109652;28;20078;-67
2023/06/14 08:10:44;;;;;;;1.77;0.95;;;;;;;;;;5117705;27;20043;-67
2023/06/14 08:13:12;;;;;;;2.50;1.02;;;;;;;;;;5102377;28;20047;-67
2023/06/14 08:15:40;;;;;;;1.90;1.20;;;;;;;;;;5112071;27;20502;-67
2023/06/14 08:18:07;;;;;;;1.92;1.27;;;;;;;;;;5102085;28;20518;-67
2023/06/14 08:20:35;;;;;;;1.00;0.90;;;;;;;;;;5103475;28;20044;-68
2023/06/14 08:23:02;;;;;;;3.22;1.50;;;;;;;;;;5108039;28;20043;-67
2023/06/14 08:25:29;;;;;;;1.52;1.15;;;;;;;;;;5109958;28;20050;-67
2023/06/14 08:27:56;;;;;;;1.85;1.20;;;;;;;;;;5109329;28;20048;-67
2023/06/14 08:30:24;;;;;;;2.85;1.10;;;;;;;;;;5096036;28;20078;-67
2023/06/14 08:32:55;;;;;;;1.77;1.23;;;;;;;;;;5109947;28;20051;-68
2023/06/14 08:35:22;;;;;;;2.28;1.27;;;;;;;;;;5092780;28;20409;-68
2023/06/14 08:37:49;;;;;;;1.60;1.20;;;;;;;;;;5081243;28;20052;-68
2023/06/14 08:40:21;;;;;;;2.80;1.40;;;;;;;;;;5111811;27;20043;-67
2023/06/14 08:42:49;;;;;;;3.53;1.10;;;;;;;;;;5092297;28;20052;-67
2023/06/14 08:45:17;;;;;;;1.20;1.02;;;;;;;;;;5109803;28;20044;-68
2023/06/14 08:47:45;;;;;;;2.03;1.00;;;;;;;;;;5105343;28;20054;-68
2023/06/14 08:50:16;;;;;;;2.58;1.00;;;;;;;;;;5105675;27;20079;-67
2023/06/14 08:52:50;;;;;;;1.92;1.40;;;;;;;;;;5089534;28;20083;-67
2023/06/14 08:55:19;;;;;;;2.10;1.17;;;;;;;;;;5109474;28;20183;-67
2023/06/14 08:57:49;;;;;;;1.52;1.02;;;;;;;;;;5108194;28;20040;-68
2023/06/14 09:00:17;;;;;;;1.73;1.10;;;;;;;;;;5107774;28;20051;-68
2023/06/14 09:02:44;;;;;;;2.60;1.20;;;;;;;;;;5109687;28;20126;-68
2023/06/14 09:05:13;;;;;;;4.60;0.98;;;;;;;;;;5105966;28;20494;-68
2023/06/14 09:07:41;;;;;;;3.80;1.20;;;;;;;;;;5108483;28;20092;-68
2023/06/14 09:10:13;;;;;;;0.85;0.77;;;;;;;;;;5110876;28;20071;-68
2023/06/14 09:12:40;;;;;;;1.95;1.10;;;;;;;;;;5108469;28;20067;-68
2023/06/14 09:15:08;;;;;;;3.55;1.00;;;;;;;;;;5105925;28;20054;-68
2023/06/14 09:17:36;;;;;;;2.75;1.23;;;;;;;;;;5099645;28;20047;-68
2023/06/14 09:20:09;;;;;;;1.70;1.10;;;;;;;;;;5103003;28;20058;-68
2023/06/14 09:22:37;;;;;;;2.10;0.90;;;;;;;;;;5109182;28;20040;-67
2023/06/14 09:25:05;;;;;;;2.45;1.30;;;;;;;;;;5103891;27;20124;-68
2023/06/14 09:27:33;;;;;;;2.35;0.90;;;;;;;;;;5107607;28;20100;-67
2023/06/14 09:30:01;;;;;;;2.15;1.20;;;;;;;;;;5110628;28;20043;-67
2023/06/14 09:32:28;;;;;;;1.73;1.30;;;;;;;;;;5097130;28;20482;-67
2023/06/14 09:34:56;;;;;;;2.33;1.20;;;;;;;;;;5105443;28;20040;-68
2023/06/14 09:37:30;;;;;;;3.67;1.08;;;;;;;;;;5107969;28;20052;-68
2023/06/14 09:39:59;;;;;;;1.73;1.10;;;;;;;;;;5113862;27;20079;-68
2023/06/14 09:42:28;;;;;;;2.35;1.13;;;;;;;;;;5108979;28;20391;-68
2023/06/14 09:44:56;;;;;;;2.45;1.20;;;;;;;;;;5110435;28;20413;-68
2023/06/14 09:47:23;;;;;;;2.05;1.10;;;;;;;;;;5100487;28;20407;-67
2023/06/14 09:49:54;;;;;;;1.70;1.25;;;;;;;;;;5103588;28;20123;-68
2023/06/14 09:52:22;;;;;;;1.58;1.10;;;;;;;;;;5110553;28;20048;-68
2023/06/14 09:54:50;;;;;;;2.47;1.35;;;;;;;;;;5106945;28;20051;-68
2023/06/14 09:57:22;;;;;;;2.13;1.33;;;;;;;;;;5108387;28;20043;-68
2023/06/14 09:59:49;;;;;;;1.90;1.10;;;;;;;;;;5107658;27;20060;-68
2023/06/14 10:02:23;;;;;;;4.05;1.20;;;;;;;;;;5105127;27;20052;-68
2023/06/14 10:04:55;;;;;;;1.17;1.08;;;;;;;;;;5101946;28;20131;-68
2023/06/14 10:07:23;;;;;;;1.52;1.00;;;;;;;;;;5108581;28;20364;-68
2023/06/14 10:09:51;;;;;;;5.35;1.20;;;;;;;;;;5083128;28;20054;-68
2023/06/14 10:12:21;;;;;;;2.15;1.27;;;;;;;;;;5111756;28;20058;-68
2023/06/14 10:14:50;;;;;;;2.25;1.17;;;;;;;;;;5094404;28;20055;-68
2023/06/14 10:17:24;;;;;;;2.05;1.10;;;;;;;;;;5104161;28;20051;-68
2023/06/14 10:19:53;;;;;;;1.42;1.13;;;;;;;;;;5104891;28;20047;-68
2023/06/14 10:22:22;;;;;;;3.05;1.00;;;;;;;;;;5103622;28;20405;-68
2023/06/14 10:24:50;;;;;;;2.25;1.08;;;;;;;;;;5102808;28;20059;-68
2023/06/14 10:27:23;;;;;;;1.42;1.00;;;;;;;;;;5099329;28;20079;-60
2023/06/14 10:29:50;;;;;;;;;;;;;;;;;;5109557;28;20130;-61
2023/06/14 10:32:19;;;;;;;1.60;1.10;;;;;;;;;;5105186;27;19927;-60
2023/06/14 10:34:46;;;;;;;1.92;1.00;;;;;;;;;;5100149;28;20058;-61
2023/06/14 10:37:14;;;;;;;1.27;1.00;;;;;;;;;;5106978;28;20086;-61
2023/06/14 10:39:42;;;;;;;2.22;1.40;;;;;;;;;;5109669;28;20087;-61
2023/06/14 10:42:10;;;;;;;2.42;1.10;;;;;;;;;;5106303;28;20044;-62
2023/06/14 10:44:41;;;;;;;1.10;1.00;;;;;;;;;;5109208;28;20130;-60
2023/06/14 10:47:09;;;;;;;2.25;1.27;;;;;;;;;;5107583;28;20387;-61
2023/06/14 10:49:45;;;;;;;1.75;1.20;;;;;;;;;;5109053;28;20043;-61
2023/06/14 10:52:18;;;;;;;1.17;1.05;;;;;;;;;;5108531;28;20388;-61
2023/06/14 10:55:14;;;;;;;3.08;1.30;;;;;;;;;;5108880;28;20087;-61
2023/06/14 10:57:42;;;;;;;2.78;1.65;;;;;;;;;;5101309;28;20177;-61
2023/06/14 11:00:15;;;;;;;1.52;1.20;;;;;;;;;;5108664;28;20040;-61
2023/06/14 11:03:05;;;;;;;2.45;1.48;;;;;;;;;;5103478;28;20069;-62
2023/06/14 11:05:43;;;;;;;3.35;1.52;;;;;;;;;;5100492;28;20127;-61
2023/06/14 11:08:28;;;;;;;4.72;1.23;;;;;;;;;;5112430;27;20074;-61
2023/06/14 11:10:56;;;;;;;3.38;1.30;;;;;;;;;;5106479;27;20110;-61
2023/06/14 11:13:26;;;;;;;2.80;1.42;;;;;;;;;;5112195;28;20062;-61
2023/06/14 11:15:54;;;;;;;2.03;1.13;;;;;;;;;;5106439;28;20052;-61
2023/06/14 11:18:24;;;;;;;1.65;1.20;;;;;;;;;;5102730;28;20514;-61
2023/06/14 11:20:52;;;;;;;4.22;1.50;;;;;;;;;;5104900;28;20087;-61
2023/06/14 11:23:20;;;;;;;4.13;1.60;;;;;;;;;;5107337;28;20047;-61
2023/06/14 11:25:51;;;;;;;3.08;1.40;;;;;;;;;;5110818;28;20056;-61
2023/06/14 11:28:19;;;;;;;1.63;1.20;;;;;;;;;;5110491;28;20050;-61
2023/06/14 11:30:47;;;;;;;1.65;1.08;;;;;;;;;;5110784;28;20047;-61
2023/06/14 11:33:18;;;;;;;3.60;1.27;;;;;;;;;;5109419;28;20112;-61
2023/06/14 11:35:46;;;;;;;1.35;1.17;;;;;;;;;;5110218;28;20044;-61
2023/06/14 11:38:15;;;;;;;3.80;1.27;;;;;;;;;;5112448;28;20074;-61
2023/06/14 11:40:42;;;;;;;1.65;1.30;;;;;;;;;;5103398;28;20054;-61
2023/06/14 11:43:09;;;;;;;3.15;1.20;;;;;;;;;;5112729;28;20417;-61
2023/06/14 11:45:37;;;;;;;1.83;1.15;;;;;;;;;;5108146;28;20051;-62
2023/06/14 11:48:04;;;;;;;2.10;1.23;;;;;;;;;;5107773;28;20051;-62
2023/06/14 11:50:33;;;;;;;2.30;1.40;;;;;;;;;;5104389;28;20043;-62
2023/06/14 11:53:06;;;;;;;1.95;1.25;;;;;;;;;;5103412;28;20071;-62
2023/06/14 11:55:37;;;;;;;2.30;1.30;;;;;;;;;;5108757;28;20079;-62
2023/06/14 11:58:04;;;;;;;2.92;1.50;;;;;;;;;;5111121;28;20055;-62
2023/06/14 12:00:32;;;;;;;2.67;1.58;;;;;;;;;;5110392;28;20050;-61
2023/06/14 12:02:59;;;;;;;1.65;1.20;;;;;;;;;;5108023;28;20048;-62
2023/06/14 12:05:27;;;;;;;2.53;1.50;;;;;;;;;;5105433;28;20043;-62
2023/06/14 12:08:00;;;;;;;1.52;1.40;;;;;;;;;;5109414;27;20044;-62
2023/06/14 12:10:27;;;;;;;1.95;1.30;;;;;;;;;;5104318;28;20408;-62
2023/06/14 12:12:59;;;;;;;2.13;1.60;;;;;;;;;;5109401;28;20056;-62
2023/06/14 12:15:29;;;;;;;1.95;1.60;;;;;;;;;;5103961;28;20089;-62
2023/06/14 12:17:57;;;;;;;1.73;1.40;;;;;;;;;;5110837;28;20083;-62
2023/06/14 12:20:24;;;;;;;1.50;1.30;;;;;;;;;;5106093;28;20445;-62
2023/06/14 12:22:56;;;;;;;2.60;1.80;;;;;;;;;;5106457;27;20051;-61
2023/06/14 12:25:28;;;;;;;2.15;1.70;;;;;;;;;;5110183;28;20046;-63
2023/06/14 12:27:55;;;;;;;;;;;;;;;;;;5105755;28;20051;-62
2023/06/14 12:30:24;;;;;;;1.50;1.40;;;;;;;;;;5104192;27;19974;-62
2023/06/14 12:32:52;;;;;;;2.47;1.70;;;;;;;;;;5108026;28;20135;-63
2023/06/14 12:35:19;;;;;;;3.55;1.80;;;;;;;;;;5110874;28;20539;-61
2023/06/14 12:37:47;;;;;;;3.67;1.70;;;;;;;;;;5107869;28;20043;-62
2023/06/14 12:40:14;;;;;;;5.15;1.67;;;;;;;;;;5108541;28;20499;-62
2023/06/14 12:42:41;;;;;;;1.98;1.60;;;;;;;;;;5108648;27;20051;-62
2023/06/14 12:45:09;;;;;;;2.63;1.83;;;;;;;;;;5110836;28;20130;-61
2023/06/14 12:47:38;;;;;;;3.58;1.70;;;;;;;;;;5110208;28;20047;-61
2023/06/14 12:50:05;;;;;;;5.43;1.90;;;;;;;;;;5108490;28;20051;-62
2023/06/14 12:52:35;;;;;;;2.70;1.73;;;;;;;;;;5109465;28;20509;-62
2023/06/14 12:55:04;;;;;;;4.88;2.17;;;;;;;;;;5110378;28;20039;-61
2023/06/14 12:57:31;;;;;;;3.13;1.70;;;;;;;;;;5103292;28;20047;-62
2023/06/14 12:59:58;;;;;;;3.20;1.95;;;;;;;;;;5110856;27;20486;-62
2023/06/14 13:02:25;;;;;;;2.60;1.67;;;;;;;;;;5104406;28;20418;-61
2023/06/14 13:04:54;;;;;;;2.13;1.70;;;;;;;;;;5108573;28;20075;-62
2023/06/14 13:07:22;;;;;;;4.50;2.10;;;;;;;;;;5107306;28;20054;-61
2023/06/14 13:09:49;;;;;;;2.92;1.98;;;;;;;;;;5109375;28;20052;-62
2023/06/14 13:12:16;;;;;;;2.80;1.90;;;;;;;;;;5111908;27;20036;-62
2023/06/14 13:14:43;;;;;;;3.80;1.98;;;;;;;;;;5102744;28;20398;-62
2023/06/14 13:17:11;;;;;;;3.53;2.05;;;;;;;;;;5104808;28;20080;-63
2023/06/14 13:19:38;;;;;;;4.78;2.15;;;;;;;;;;5089209;28;20047;-62
2023/06/14 13:22:08;;;;;;;3.03;1.90;;;;;;;;;;5102640;28;20051;-70
2023/06/14 13:24:35;;;;;;;2.78;1.70;;;;;;;;;;5108456;28;20092;-69
2023/06/14 13:27:02;;;;;;;4.07;1.88;;;;;;;;;;5090232;28;20052;-70
2023/06/14 13:29:30;;;;;;;2.00;1.65;;;;;;;;;;5108999;28;20044;-69
2023/06/14 13:31:58;;;;;;;7.53;2.08;;;;;;;;;;5111088;27;20154;-69
2023/06/14 13:34:25;;;;;;;3.05;1.85;;;;;;;;;;5110634;28;20039;-70
2023/06/14 13:36:52;;;;;;;3.92;1.88;;;;;;;;;;5110375;27;20047;-71
2023/06/14 13:39:21;;;;;;;3.63;2.13;;;;;;;;;;5108818;28;20050;-70
2023/06/14 13:41:48;;;;;;;3.10;2.05;;;;;;;;;;5094972;27;20086;-70
2023/06/14 13:44:18;;;;;;;2.42;1.80;;;;;;;;;;5109662;28;20220;-70
2023/06/14 13:46:45;;;;;;;3.53;2.00;;;;;;;;;;5104619;28;20047;-70
2023/06/14 13:49:12;;;;;;;2.78;1.60;;;;;;;;;;5110806;28;20048;-70
2023/06/14 13:51:40;;;;;;;4.00;2.25;;;;;;;;;;5106664;28;20071;-70
2023/06/14 13:54:07;;;;;;;2.28;1.77;;;;;;;;;;5110512;28;20048;-70
2023/06/14 13:56:36;;;;;;;3.00;1.80;;;;;;;;;;5103178;28;20597;-69
2023/06/14 13:59:03;;;;;;;4.30;2.10;;;;;;;;;;5109918;28;20039;-70
2023/06/14 14:01:30;;;;;;;2.53;2.10;;;;;;;;;;5100773;28;20059;-70
2023/06/14 14:03:58;;;;;;;3.85;2.35;;;;;;;;;;5108636;28;20051;-70
2023/06/14 14:06:25;;;;;;;4.10;2.17;;;;;;;;;;5110728;28;20062;-70
2023/06/14 14:08:53;;;;;;;5.85;2.13;;;;;;;;;;5107495;28;20490;-70
2023/06/14 14:11:21;;;;;;;3.35;2.13;;;;;;;;;;5085553;28;20047;-70
2023/06/14 14:13:49;;;;;;;2.22;2.00;;;;;;;;;;5104233;28;20551;-70
2023/06/14 14:16:17;;;;;;;8.02;2.35;;;;;;;;;;5102955;28;20513;-70
2023/06/14 14:18:44;;;;;;;2.85;2.00;;;;;;;;;;5104289;28;20044;-70
2023/06/14 14:21:11;;;;;;;3.30;2.00;;;;;;;;;;5106452;28;20518;-71
2023/06/14 14:23:39;;;;;;;2.78;2.17;;;;;;;;;;5107776;28;20040;-70
2023/06/14 14:26:06;;;;;;;3.13;2.13;;;;;;;;;;5103475;28;20364;-70
2023/06/14 14:28:33;;;;;;;2.20;2.00;;;;;;;;;;5108276;28;20596;-70
2023/06/14 14:31:02;;;;;;;2.95;2.30;;;;;;;;;;5103735;28;20066;-70
2023/06/14 14:33:30;;;;;;;2.88;2.10;;;;;;;;;;5104949;28;20043;-70
2023/06/14 14:35:57;;;;;;;2.75;2.00;;;;;;;;;;5112243;28;20536;-70
2023/06/14 14:38:24;;;;;;;2.83;2.10;;;;;;;;;;5103145;27;20055;-70
2023/06/14 14:40:51;;;;;;;2.53;2.33;;;;;;;;;;5096503;28;20510;-70
2023/06/14 14:43:19;;;;;;;4.90;2.55;;;;;;;;;;5089205;28;20052;-70
2023/06/14 14:45:46;;;;;;;3.03;2.10;;;;;;;;;;5091728;28;20052;-70
2023/06/14 14:48:14;;;;;;;2.75;2.40;;;;;;;;;;5109216;28;20040;-70
2023/06/14 14:50:42;;;;;;;3.30;2.13;;;;;;;;;;5109149;28;20402;-70